sensor_id;sensor_type;location;lat;lon;timestamp;temperature;humidity
43089;DHT22;28709;52.030;5.652;2023-09-12T00:00:49;19.70;99.90
43089;DHT22;28709;52.030;5.652;2023-09-12T00:03:19;19.70;99.90
43089;DHT22;28709;52.030;5.652;2023-09-12T00:05:51;19.70;99.90
43089;DHT22;28709;52.030;5.652;2023-09-12T00:08:17;19.70;99.90
43089;DHT22;28709;52.030;5.652;2023-09-12T00:10:42;19.60;99.90
43089;DHT22;28709;52.030;5.652;2023-09-12T00:13:08;19.60;99.90
43089;DHT22;28709;52.030;5.652;2023-09-12T00:15:33;19.60;99.90
43089;DHT22;28709;52.030;5.652;2023-09-12T00:17:59;19.60;99.90
43089;DHT22;28709;52.030;5.652;2023-09-12T00:20:24;19.60;99.90
43089;DHT22;28709;52.030;5.652;2023-09-12T00:22:50;19.60;99.90
43089;DHT22;28709;52.030;5.652;2023-09-12T00:25:16;19.50;99.90
43089;DHT22;28709;52.030;5.652;2023-09-12T00:27:42;19.50;99.90
43089;DHT22;28709;52.030;5.652;2023-09-12T00:30:07;19.50;99.90
43089;DHT22;28709;52.030;5.652;2023-09-12T00:32:33;19.50;99.90
43089;DHT22;28709;52.030;5.652;2023-09-12T00:34:59;19.50;99.90
43089;DHT22;28709;52.030;5.652;2023-09-12T00:37:24;19.50;99.90
43089;DHT22;28709;52.030;5.652;2023-09-12T00:39:50;19.50;99.90
43089;DHT22;28709;52.030;5.652;2023-09-12T00:42:16;19.50;99.90
43089;DHT22;28709;52.030;5.652;2023-09-12T00:44:41;19.50;99.90
43089;DHT22;28709;52.030;5.652;2023-09-12T00:47:08;19.50;99.90
43089;DHT22;28709;52.030;5.652;2023-09-12T00:49:35;19.60;99.90
43089;DHT22;28709;52.030;5.652;2023-09-12T00:52:01;19.50;99.90
43089;DHT22;28709;52.030;5.652;2023-09-12T00:54:27;19.60;99.90
43089;DHT22;28709;52.030;5.652;2023-09-12T00:56:53;19.60;99.90
43089;DHT22;28709;52.030;5.652;2023-09-12T00:59:19;19.60;99.90
43089;DHT22;28709;52.030;5.652;2023-09-12T01:01:45;19.50;99.90
43089;DHT22;28709;52.030;5.652;2023-09-12T01:04:11;19.50;99.90
43089;DHT22;28709;52.030;5.652;2023-09-12T01:06:37;19.50;99.90
43089;DHT22;28709;52.030;5.652;2023-09-12T01:09:04;19.40;99.90
43089;DHT22;28709;52.030;5.652;2023-09-12T01:11:30;19.40;99.90
43089;DHT22;28709;52.030;5.652;2023-09-12T01:13:56;19.40;99.90
43089;DHT22;28709;52.030;5.652;2023-09-12T01:16:22;19.40;99.90
43089;DHT22;28709;52.030;5.652;2023-09-12T01:18:48;19.30;99.90
43089;DHT22;28709;52.030;5.652;2023-09-12T01:29:43;19.20;99.90
43089;DHT22;28709;52.030;5.652;2023-09-12T01:32:10;19.20;99.90
43089;DHT22;28709;52.030;5.652;2023-09-12T01:34:36;19.30;99.90
43089;DHT22;28709;52.030;5.652;2023-09-12T01:37:01;19.30;99.90
43089;DHT22;28709;52.030;5.652;2023-09-12T01:39:27;19.30;99.90
43089;DHT22;28709;52.030;5.652;2023-09-12T01:41:54;19.30;99.90
43089;DHT22;28709;52.030;5.652;2023-09-12T01:44:21;19.30;99.90
43089;DHT22;28709;52.030;5.652;2023-09-12T01:46:49;19.30;99.90
43089;DHT22;28709;52.030;5.652;2023-09-12T01:49:16;19.30;99.90
43089;DHT22;28709;52.030;5.652;2023-09-12T01:51:43;19.30;99.90
43089;DHT22;28709;52.030;5.652;2023-09-12T01:54:10;19.30;99.90
43089;DHT22;28709;52.030;5.652;2023-09-12T01:56:36;19.30;99.90
43089;DHT22;28709;52.030;5.652;2023-09-12T01:59:02;19.30;99.90
43089;DHT22;28709;52.030;5.652;2023-09-12T02:01:28;19.30;99.90
43089;DHT22;28709;52.030;5.652;2023-09-12T02:03:54;19.20;99.90
43089;DHT22;28709;52.030;5.652;2023-09-12T02:06:19;19.30;99.90
43089;DHT22;28709;52.030;5.652;2023-09-12T02:08:45;19.30;99.90
43089;DHT22;28709;52.030;5.652;2023-09-12T02:11:10;19.20;99.90
43089;DHT22;28709;52.030;5.652;2023-09-12T02:13:36;19.20;99.90
43089;DHT22;28709;52.030;5.652;2023-09-12T02:16:01;19.20;99.90
43089;DHT22;28709;52.030;5.652;2023-09-12T02:18:29;19.20;99.90
43089;DHT22;28709;52.030;5.652;2023-09-12T02:20:54;19.20;99.90
43089;DHT22;28709;52.030;5.652;2023-09-12T02:23:20;19.20;99.90
43089;DHT22;28709;52.030;5.652;2023-09-12T02:25:45;19.20;99.90
43089;DHT22;28709;52.030;5.652;2023-09-12T02:28:11;19.20;99.90
43089;DHT22;28709;52.030;5.652;2023-09-12T02:30:40;19.20;99.90
43089;DHT22;28709;52.030;5.652;2023-09-12T02:33:06;19.20;99.90
43089;DHT22;28709;52.030;5.652;2023-09-12T02:35:32;19.10;99.90
43089;DHT22;28709;52.030;5.652;2023-09-12T02:37:57;19.10;99.90
43089;DHT22;28709;52.030;5.652;2023-09-12T02:40:23;19.10;99.90
43089;DHT22;28709;52.030;5.652;2023-09-12T02:42:49;19.10;99.90
43089;DHT22;28709;52.030;5.652;2023-09-12T02:45:14;19.10;99.90
43089;DHT22;28709;52.030;5.652;2023-09-12T02:47:40;19.10;99.90
43089;DHT22;28709;52.030;5.652;2023-09-12T02:50:09;19.10;99.90
43089;DHT22;28709;52.030;5.652;2023-09-12T02:52:34;19.10;99.90
43089;DHT22;28709;52.030;5.652;2023-09-12T02:55:00;19.10;99.90
43089;DHT22;28709;52.030;5.652;2023-09-12T02:57:26;19.10;99.90
43089;DHT22;28709;52.030;5.652;2023-09-12T02:59:51;19.00;99.90
43089;DHT22;28709;52.030;5.652;2023-09-12T03:02:17;19.00;99.90
43089;DHT22;28709;52.030;5.652;2023-09-12T03:04:42;19.00;99.90
43089;DHT22;28709;52.030;5.652;2023-09-12T03:07:08;19.00;99.90
43089;DHT22;28709;52.030;5.652;2023-09-12T03:09:34;19.00;99.90
43089;DHT22;28709;52.030;5.652;2023-09-12T03:12:03;19.00;99.90
43089;DHT22;28709;52.030;5.652;2023-09-12T03:14:28;18.90;99.90
43089;DHT22;28709;52.030;5.652;2023-09-12T03:16:54;18.90;99.90
43089;DHT22;28709;52.030;5.652;2023-09-12T03:19:21;18.90;99.90
43089;DHT22;28709;52.030;5.652;2023-09-12T03:21:47;18.90;99.90
43089;DHT22;28709;52.030;5.652;2023-09-12T03:24:12;18.90;99.90
43089;DHT22;28709;52.030;5.652;2023-09-12T03:26:38;18.90;99.90
43089;DHT22;28709;52.030;5.652;2023-09-12T03:29:04;18.90;99.90
43089;DHT22;28709;52.030;5.652;2023-09-12T03:31:30;18.90;99.90
43089;DHT22;28709;52.030;5.652;2023-09-12T03:33:56;18.90;99.90
43089;DHT22;28709;52.030;5.652;2023-09-12T03:36:21;18.90;99.90
43089;DHT22;28709;52.030;5.652;2023-09-12T03:38:47;18.90;99.90
43089;DHT22;28709;52.030;5.652;2023-09-12T03:41:13;18.90;99.90
43089;DHT22;28709;52.030;5.652;2023-09-12T03:43:38;18.90;99.90
43089;DHT22;28709;52.030;5.652;2023-09-12T03:46:04;18.80;99.90
43089;DHT22;28709;52.030;5.652;2023-09-12T03:48:30;18.80;99.90
43089;DHT22;28709;52.030;5.652;2023-09-12T03:50:57;18.80;99.90
43089;DHT22;28709;52.030;5.652;2023-09-12T03:53:22;18.80;99.90
43089;DHT22;28709;52.030;5.652;2023-09-12T03:55:48;18.80;99.90
43089;DHT22;28709;52.030;5.652;2023-09-12T03:58:14;18.80;99.90
43089;DHT22;28709;52.030;5.652;2023-09-12T04:00:39;18.90;99.90
43089;DHT22;28709;52.030;5.652;2023-09-12T04:03:05;18.90;99.90
43089;DHT22;28709;52.030;5.652;2023-09-12T04:05:31;18.90;99.90
43089;DHT22;28709;52.030;5.652;2023-09-12T04:07:56;18.90;99.90
43089;DHT22;28709;52.030;5.652;2023-09-12T04:10:22;18.90;99.90
43089;DHT22;28709;52.030;5.652;2023-09-12T04:12:48;18.90;99.90
43089;DHT22;28709;52.030;5.652;2023-09-12T04:15:14;18.90;99.90
43089;DHT22;28709;52.030;5.652;2023-09-12T04:17:39;18.90;99.90
43089;DHT22;28709;52.030;5.652;2023-09-12T04:20:06;18.90;99.90
43089;DHT22;28709;52.030;5.652;2023-09-12T04:22:32;18.90;99.90
43089;DHT22;28709;52.030;5.652;2023-09-12T04:24:58;18.90;99.90
43089;DHT22;28709;52.030;5.652;2023-09-12T04:27:23;18.90;99.90
43089;DHT22;28709;52.030;5.652;2023-09-12T04:29:49;18.90;99.90
43089;DHT22;28709;52.030;5.652;2023-09-12T04:32:15;18.80;99.90
43089;DHT22;28709;52.030;5.652;2023-09-12T04:34:42;18.90;99.90
43089;DHT22;28709;52.030;5.652;2023-09-12T04:37:08;18.90;99.90
43089;DHT22;28709;52.030;5.652;2023-09-12T04:39:34;18.90;99.90
43089;DHT22;28709;52.030;5.652;2023-09-12T04:41:59;18.90;99.90
43089;DHT22;28709;52.030;5.652;2023-09-12T04:44:25;18.90;99.90
43089;DHT22;28709;52.030;5.652;2023-09-12T04:46:51;18.80;99.90
43089;DHT22;28709;52.030;5.652;2023-09-12T04:49:16;18.80;99.90
43089;DHT22;28709;52.030;5.652;2023-09-12T04:51:42;18.80;99.90
43089;DHT22;28709;52.030;5.652;2023-09-12T04:54:08;18.80;99.90
43089;DHT22;28709;52.030;5.652;2023-09-12T04:56:34;18.80;99.90
43089;DHT22;28709;52.030;5.652;2023-09-12T04:58:59;18.90;99.90
43089;DHT22;28709;52.030;5.652;2023-09-12T05:01:25;18.80;99.90
43089;DHT22;28709;52.030;5.652;2023-09-12T05:03:51;18.80;99.90
43089;DHT22;28709;52.030;5.652;2023-09-12T05:06:17;18.80;99.90
43089;DHT22;28709;52.030;5.652;2023-09-12T05:08:43;18.80;99.90
43089;DHT22;28709;52.030;5.652;2023-09-12T05:11:09;18.80;99.90
43089;DHT22;28709;52.030;5.652;2023-09-12T05:13:34;18.80;99.90
43089;DHT22;28709;52.030;5.652;2023-09-12T05:16:00;18.70;99.90
43089;DHT22;28709;52.030;5.652;2023-09-12T05:18:26;18.70;99.90
43089;DHT22;28709;52.030;5.652;2023-09-12T05:20:51;18.80;99.90
43089;DHT22;28709;52.030;5.652;2023-09-12T05:23:17;18.80;99.90
43089;DHT22;28709;52.030;5.652;2023-09-12T05:25:43;18.80;99.90
43089;DHT22;28709;52.030;5.652;2023-09-12T05:28:08;18.80;99.90
43089;DHT22;28709;52.030;5.652;2023-09-12T05:30:34;18.80;99.90
43089;DHT22;28709;52.030;5.652;2023-09-12T05:33:00;18.80;99.90
43089;DHT22;28709;52.030;5.652;2023-09-12T05:35:25;18.70;99.90
43089;DHT22;28709;52.030;5.652;2023-09-12T05:37:51;18.80;99.90
43089;DHT22;28709;52.030;5.652;2023-09-12T05:40:18;18.70;99.90
43089;DHT22;28709;52.030;5.652;2023-09-12T05:42:43;18.70;99.90
43089;DHT22;28709;52.030;5.652;2023-09-12T05:45:09;18.70;99.90
43089;DHT22;28709;52.030;5.652;2023-09-12T05:47:35;18.70;99.90
43089;DHT22;28709;52.030;5.652;2023-09-12T05:50:00;18.60;99.90
43089;DHT22;28709;52.030;5.652;2023-09-12T05:52:26;18.60;99.90
43089;DHT22;28709;52.030;5.652;2023-09-12T05:54:52;18.50;99.90
43089;DHT22;28709;52.030;5.652;2023-09-12T05:57:17;18.50;99.90
43089;DHT22;28709;52.030;5.652;2023-09-12T05:59:43;18.50;99.90
43089;DHT22;28709;52.030;5.652;2023-09-12T06:02:09;18.50;99.90
43089;DHT22;28709;52.030;5.652;2023-09-12T06:04:36;18.60;99.90
43089;DHT22;28709;52.030;5.652;2023-09-12T06:07:02;18.50;99.90
43089;DHT22;28709;52.030;5.652;2023-09-12T06:09:29;18.50;99.90
43089;DHT22;28709;52.030;5.652;2023-09-12T06:11:54;18.50;99.90
43089;DHT22;28709;52.030;5.652;2023-09-12T06:14:20;18.50;99.90
43089;DHT22;28709;52.030;5.652;2023-09-12T06:16:46;18.50;99.90
43089;DHT22;28709;52.030;5.652;2023-09-12T06:19:12;18.60;99.90
43089;DHT22;28709;52.030;5.652;2023-09-12T06:21:38;18.60;99.90
43089;DHT22;28709;52.030;5.652;2023-09-12T06:24:19;18.60;99.90
43089;DHT22;28709;52.030;5.652;2023-09-12T06:26:46;18.60;99.90
43089;DHT22;28709;52.030;5.652;2023-09-12T06:29:13;18.70;99.90
43089;DHT22;28709;52.030;5.652;2023-09-12T06:31:39;18.70;99.90
43089;DHT22;28709;52.030;5.652;2023-09-12T06:34:07;18.60;99.90
43089;DHT22;28709;52.030;5.652;2023-09-12T06:36:33;18.70;99.90
43089;DHT22;28709;52.030;5.652;2023-09-12T06:38:59;18.70;99.90
43089;DHT22;28709;52.030;5.652;2023-09-12T06:41:25;18.70;99.90
43089;DHT22;28709;52.030;5.652;2023-09-12T06:43:51;18.70;99.90
43089;DHT22;28709;52.030;5.652;2023-09-12T06:46:17;18.80;99.90
43089;DHT22;28709;52.030;5.652;2023-09-12T06:48:46;18.90;99.90
43089;DHT22;28709;52.030;5.652;2023-09-12T06:51:12;18.90;99.90
43089;DHT22;28709;52.030;5.652;2023-09-12T06:53:38;18.90;99.90
43089;DHT22;28709;52.030;5.652;2023-09-12T06:56:07;18.90;99.90
43089;DHT22;28709;52.030;5.652;2023-09-12T06:58:33;19.00;99.90
43089;DHT22;28709;52.030;5.652;2023-09-12T07:01:05;19.00;99.90
43089;DHT22;28709;52.030;5.652;2023-09-12T07:03:32;19.00;99.90
43089;DHT22;28709;52.030;5.652;2023-09-12T07:05:58;19.00;99.90
43089;DHT22;28709;52.030;5.652;2023-09-12T07:08:24;19.00;99.90
43089;DHT22;28709;52.030;5.652;2023-09-12T07:10:49;19.10;99.90
43089;DHT22;28709;52.030;5.652;2023-09-12T07:13:15;19.10;99.90
43089;DHT22;28709;52.030;5.652;2023-09-12T07:15:41;19.20;99.90
43089;DHT22;28709;52.030;5.652;2023-09-12T07:18:06;19.20;99.90
43089;DHT22;28709;52.030;5.652;2023-09-12T07:20:33;19.30;99.90
43089;DHT22;28709;52.030;5.652;2023-09-12T07:22:59;19.40;99.90
43089;DHT22;28709;52.030;5.652;2023-09-12T07:25:24;19.40;99.90
43089;DHT22;28709;52.030;5.652;2023-09-12T07:27:50;19.50;99.90
43089;DHT22;28709;52.030;5.652;2023-09-12T07:30:16;19.50;99.90
43089;DHT22;28709;52.030;5.652;2023-09-12T07:32:42;19.60;99.90
43089;DHT22;28709;52.030;5.652;2023-09-12T07:35:08;19.60;99.90
43089;DHT22;28709;52.030;5.652;2023-09-12T07:37:34;19.60;99.90
43089;DHT22;28709;52.030;5.652;2023-09-12T07:40:00;19.70;99.90
43089;DHT22;28709;52.030;5.652;2023-09-12T07:42:26;19.70;99.90
43089;DHT22;28709;52.030;5.652;2023-09-12T07:44:51;19.70;99.90
43089;DHT22;28709;52.030;5.652;2023-09-12T07:47:18;19.70;99.90
43089;DHT22;28709;52.030;5.652;2023-09-12T07:49:44;19.80;99.90
43089;DHT22;28709;52.030;5.652;2023-09-12T07:52:09;19.90;99.90
43089;DHT22;28709;52.030;5.652;2023-09-12T07:54:35;20.00;99.90
43089;DHT22;28709;52.030;5.652;2023-09-12T07:57:02;20.00;99.90
43089;DHT22;28709;52.030;5.652;2023-09-12T07:59:28;20.00;99.90
43089;DHT22;28709;52.030;5.652;2023-09-12T08:01:54;20.00;99.90
43089;DHT22;28709;52.030;5.652;2023-09-12T08:04:19;20.00;99.90
43089;DHT22;28709;52.030;5.652;2023-09-12T08:06:45;20.10;99.90
43089;DHT22;28709;52.030;5.652;2023-09-12T08:09:11;20.10;99.90
43089;DHT22;28709;52.030;5.652;2023-09-12T08:11:36;20.30;99.90
43089;DHT22;28709;52.030;5.652;2023-09-12T08:14:02;20.60;99.90
43089;DHT22;28709;52.030;5.652;2023-09-12T08:16:28;20.90;99.90
43089;DHT22;28709;52.030;5.652;2023-09-12T08:18:53;21.30;99.90
43089;DHT22;28709;52.030;5.652;2023-09-12T08:21:19;21.50;99.90
43089;DHT22;28709;52.030;5.652;2023-09-12T08:23:45;21.80;99.90
43089;DHT22;28709;52.030;5.652;2023-09-12T08:26:11;22.00;99.90
43089;DHT22;28709;52.030;5.652;2023-09-12T08:28:36;22.20;99.90
43089;DHT22;28709;52.030;5.652;2023-09-12T08:31:02;22.30;99.90
43089;DHT22;28709;52.030;5.652;2023-09-12T08:33:28;22.50;99.90
43089;DHT22;28709;52.030;5.652;2023-09-12T08:35:53;22.70;99.90
43089;DHT22;28709;52.030;5.652;2023-09-12T08:38:19;22.80;99.90
43089;DHT22;28709;52.030;5.652;2023-09-12T08:40:51;22.90;99.90
43089;DHT22;28709;52.030;5.652;2023-09-12T08:43:17;23.10;99.90
43089;DHT22;28709;52.030;5.652;2023-09-12T08:45:43;23.20;99.90
43089;DHT22;28709;52.030;5.652;2023-09-12T08:48:10;23.40;99.90
43089;DHT22;28709;52.030;5.652;2023-09-12T08:50:36;23.60;99.90
43089;DHT22;28709;52.030;5.652;2023-09-12T08:53:03;23.80;99.90
43089;DHT22;28709;52.030;5.652;2023-09-12T08:55:29;24.00;99.90
43089;DHT22;28709;52.030;5.652;2023-09-12T08:57:57;24.10;99.90
43089;DHT22;28709;52.030;5.652;2023-09-12T09:00:24;24.30;99.90
43089;DHT22;28709;52.030;5.652;2023-09-12T09:02:50;24.50;99.90
43089;DHT22;28709;52.030;5.652;2023-09-12T09:05:17;24.70;99.90
43089;DHT22;28709;52.030;5.652;2023-09-12T09:07:45;24.80;99.90
43089;DHT22;28709;52.030;5.652;2023-09-12T09:10:15;25.00;99.90
43089;DHT22;28709;52.030;5.652;2023-09-12T09:12:44;25.40;99.90
43089;DHT22;28709;52.030;5.652;2023-09-12T09:15:27;25.50;99.90
43089;DHT22;28709;52.030;5.652;2023-09-12T09:17:54;25.40;99.90
43089;DHT22;28709;52.030;5.652;2023-09-12T09:20:30;25.40;99.90
43089;DHT22;28709;52.030;5.652;2023-09-12T09:23:01;25.50;99.90
43089;DHT22;28709;52.030;5.652;2023-09-12T09:25:34;25.70;99.90
43089;DHT22;28709;52.030;5.652;2023-09-12T09:28:15;25.90;99.90
43089;DHT22;28709;52.030;5.652;2023-09-12T09:30:43;25.90;99.90
43089;DHT22;28709;52.030;5.652;2023-09-12T09:33:10;26.00;99.90
43089;DHT22;28709;52.030;5.652;2023-09-12T09:35:37;26.10;99.90
43089;DHT22;28709;52.030;5.652;2023-09-12T09:38:05;26.30;99.90
43089;DHT22;28709;52.030;5.652;2023-09-12T09:40:32;26.40;99.90
43089;DHT22;28709;52.030;5.652;2023-09-12T09:43:02;26.40;99.90
43089;DHT22;28709;52.030;5.652;2023-09-12T09:45:29;26.60;99.90
43089;DHT22;28709;52.030;5.652;2023-09-12T09:48:08;26.70;99.90
43089;DHT22;28709;52.030;5.652;2023-09-12T09:50:34;26.80;99.90
43089;DHT22;28709;52.030;5.652;2023-09-12T09:53:03;26.80;99.90
43089;DHT22;28709;52.030;5.652;2023-09-12T09:55:31;26.90;99.90
43089;DHT22;28709;52.030;5.652;2023-09-12T09:57:57;26.80;99.90
43089;DHT22;28709;52.030;5.652;2023-09-12T10:00:23;26.90;99.90
43089;DHT22;28709;52.030;5.652;2023-09-12T10:02:51;27.10;99.90
43089;DHT22;28709;52.030;5.652;2023-09-12T10:05:20;27.30;99.90
43089;DHT22;28709;52.030;5.652;2023-09-12T10:07:49;27.40;99.90
43089;DHT22;28709;52.030;5.652;2023-09-12T10:10:17;27.60;99.90
43089;DHT22;28709;52.030;5.652;2023-09-12T10:12:49;27.60;99.90
43089;DHT22;28709;52.030;5.652;2023-09-12T10:15:17;27.40;99.90
43089;DHT22;28709;52.030;5.652;2023-09-12T10:17:47;27.10;99.90
43089;DHT22;28709;52.030;5.652;2023-09-12T10:20:20;27.00;99.90
43089;DHT22;28709;52.030;5.652;2023-09-12T10:23:14;26.90;99.90
43089;DHT22;28709;52.030;5.652;2023-09-12T10:25:43;27.10;99.90
43089;DHT22;28709;52.030;5.652;2023-09-12T10:28:11;27.10;99.90
43089;DHT22;28709;52.030;5.652;2023-09-12T10:30:37;27.20;99.90
43089;DHT22;28709;52.030;5.652;2023-09-12T10:33:04;27.10;99.90
43089;DHT22;28709;52.030;5.652;2023-09-12T10:35:31;27.30;99.90
43089;DHT22;28709;52.030;5.652;2023-09-12T10:38:02;27.40;99.90
43089;DHT22;28709;52.030;5.652;2023-09-12T10:40:30;27.60;99.90
43089;DHT22;28709;52.030;5.652;2023-09-12T10:42:56;27.80;99.90
43089;DHT22;28709;52.030;5.652;2023-09-12T10:45:23;28.10;99.90
43089;DHT22;28709;52.030;5.652;2023-09-12T10:47:48;28.00;99.90
43089;DHT22;28709;52.030;5.652;2023-09-12T10:50:14;27.80;99.90
43089;DHT22;28709;52.030;5.652;2023-09-12T10:52:40;27.60;99.90
43089;DHT22;28709;52.030;5.652;2023-09-12T10:55:07;27.50;99.90
43089;DHT22;28709;52.030;5.652;2023-09-12T10:57:33;27.20;99.90
43089;DHT22;28709;52.030;5.652;2023-09-12T11:02:38;26.80;99.90
43089;DHT22;28709;52.030;5.652;2023-09-12T11:05:06;26.70;99.90
43089;DHT22;28709;52.030;5.652;2023-09-12T11:12:42;26.30;99.90
43089;DHT22;28709;52.030;5.652;2023-09-12T11:15:09;26.40;99.90
43089;DHT22;28709;52.030;5.652;2023-09-12T11:20:05;26.50;99.90
43089;DHT22;28709;52.030;5.652;2023-09-12T11:22:37;26.60;99.90
43089;DHT22;28709;52.030;5.652;2023-09-12T11:25:15;26.70;99.90
43089;DHT22;28709;52.030;5.652;2023-09-12T11:30:23;26.70;99.90
43089;DHT22;28709;52.030;5.652;2023-09-12T11:33:05;26.70;99.90
43089;DHT22;28709;52.030;5.652;2023-09-12T11:35:38;26.80;99.90
43089;DHT22;28709;52.030;5.652;2023-09-12T11:38:09;26.90;99.90
43089;DHT22;28709;52.030;5.652;2023-09-12T11:43:01;27.30;99.90
43089;DHT22;28709;52.030;5.652;2023-09-12T11:45:27;27.40;99.90
43089;DHT22;28709;52.030;5.652;2023-09-12T11:47:55;27.60;99.90
43089;DHT22;28709;52.030;5.652;2023-09-12T11:50:34;27.80;99.90
43089;DHT22;28709;52.030;5.652;2023-09-12T11:53:06;28.20;99.90
43089;DHT22;28709;52.030;5.652;2023-09-12T11:55:45;28.30;99.90
43089;DHT22;28709;52.030;5.652;2023-09-12T11:58:12;28.50;99.90
43089;DHT22;28709;52.030;5.652;2023-09-12T12:00:44;28.70;99.90
43089;DHT22;28709;52.030;5.652;2023-09-12T12:03:13;29.00;99.90
43089;DHT22;28709;52.030;5.652;2023-09-12T12:05:39;29.20;99.90
43089;DHT22;28709;52.030;5.652;2023-09-12T12:08:07;29.40;99.90
43089;DHT22;28709;52.030;5.652;2023-09-12T12:10:34;29.50;99.90
43089;DHT22;28709;52.030;5.652;2023-09-12T12:13:00;29.60;99.80
43089;DHT22;28709;52.030;5.652;2023-09-12T12:15:28;29.50;99.80
43089;DHT22;28709;52.030;5.652;2023-09-12T12:17:57;29.50;99.50
43089;DHT22;28709;52.030;5.652;2023-09-12T12:20:23;29.50;99.50
43089;DHT22;28709;52.030;5.652;2023-09-12T12:22:49;29.40;99.50
43089;DHT22;28709;52.030;5.652;2023-09-12T12:25:17;29.10;99.20
43089;DHT22;28709;52.030;5.652;2023-09-12T12:27:44;28.80;99.80
43089;DHT22;28709;52.030;5.652;2023-09-12T12:30:12;28.70;99.60
43089;DHT22;28709;52.030;5.652;2023-09-12T12:32:42;28.70;99.40
43089;DHT22;28709;52.030;5.652;2023-09-12T12:35:17;28.30;99.60
43089;DHT22;28709;52.030;5.652;2023-09-12T12:37:44;27.90;99.60
43089;DHT22;28709;52.030;5.652;2023-09-12T12:40:13;27.70;99.90
43089;DHT22;28709;52.030;5.652;2023-09-12T12:42:40;27.60;99.90
43089;DHT22;28709;52.030;5.652;2023-09-12T12:45:22;27.70;99.90
43089;DHT22;28709;52.030;5.652;2023-09-12T12:47:59;27.70;99.80
43089;DHT22;28709;52.030;5.652;2023-09-12T12:50:26;27.40;99.90
43089;DHT22;28709;52.030;5.652;2023-09-12T12:52:52;27.10;99.90
43089;DHT22;28709;52.030;5.652;2023-09-12T12:55:20;26.90;99.90
43089;DHT22;28709;52.030;5.652;2023-09-12T12:57:48;26.80;99.90
43089;DHT22;28709;52.030;5.652;2023-09-12T13:00:15;26.90;99.90
43089;DHT22;28709;52.030;5.652;2023-09-12T13:02:42;26.90;99.90
43089;DHT22;28709;52.030;5.652;2023-09-12T13:05:29;26.90;99.90
43089;DHT22;28709;52.030;5.652;2023-09-12T13:07:55;26.90;99.90
43089;DHT22;28709;52.030;5.652;2023-09-12T13:10:22;26.70;99.90
43089;DHT22;28709;52.030;5.652;2023-09-12T13:12:48;26.70;99.90
43089;DHT22;28709;52.030;5.652;2023-09-12T13:15:15;26.70;99.90
43089;DHT22;28709;52.030;5.652;2023-09-12T13:17:42;26.60;99.90
43089;DHT22;28709;52.030;5.652;2023-09-12T13:20:09;26.60;99.90
43089;DHT22;28709;52.030;5.652;2023-09-12T13:22:35;26.60;99.90
43089;DHT22;28709;52.030;5.652;2023-09-12T13:25:01;26.70;99.90
43089;DHT22;28709;52.030;5.652;2023-09-12T13:27:28;26.80;99.90
43089;DHT22;28709;52.030;5.652;2023-09-12T13:29:53;26.90;99.90
43089;DHT22;28709;52.030;5.652;2023-09-12T13:32:19;27.00;99.90
43089;DHT22;28709;52.030;5.652;2023-09-12T13:34:45;27.20;99.90
43089;DHT22;28709;52.030;5.652;2023-09-12T13:37:11;27.30;99.60
43089;DHT22;28709;52.030;5.652;2023-09-12T13:39:36;27.50;99.60
43089;DHT22;28709;52.030;5.652;2023-09-12T13:42:02;27.60;99.60
43089;DHT22;28709;52.030;5.652;2023-09-12T13:44:31;27.70;99.60
43089;DHT22;28709;52.030;5.652;2023-09-12T13:46:56;27.80;98.90
43089;DHT22;28709;52.030;5.652;2023-09-12T13:49:22;27.60;99.00
43089;DHT22;28709;52.030;5.652;2023-09-12T13:51:47;27.40;98.90
43089;DHT22;28709;52.030;5.652;2023-09-12T13:54:13;27.20;99.10
43089;DHT22;28709;52.030;5.652;2023-09-12T13:56:43;27.00;99.20
43089;DHT22;28709;52.030;5.652;2023-09-12T13:59:09;26.80;99.00
43089;DHT22;28709;52.030;5.652;2023-09-12T14:01:35;26.70;99.20
43089;DHT22;28709;52.030;5.652;2023-09-12T14:04:02;26.70;99.00
43089;DHT22;28709;52.030;5.652;2023-09-12T14:06:27;26.70;98.90
43089;DHT22;28709;52.030;5.652;2023-09-12T14:08:53;26.70;98.90
43089;DHT22;28709;52.030;5.652;2023-09-12T14:11:19;26.70;98.50
43089;DHT22;28709;52.030;5.652;2023-09-12T14:13:45;26.70;98.50
43089;DHT22;28709;52.030;5.652;2023-09-12T14:16:10;26.60;98.40
43089;DHT22;28709;52.030;5.652;2023-09-12T14:18:36;26.60;98.50
43089;DHT22;28709;52.030;5.652;2023-09-12T14:21:02;26.60;98.70
43089;DHT22;28709;52.030;5.652;2023-09-12T14:23:28;26.60;98.50
43089;DHT22;28709;52.030;5.652;2023-09-12T14:25:54;26.60;98.30
43089;DHT22;28709;52.030;5.652;2023-09-12T14:28:19;26.60;98.00
43089;DHT22;28709;52.030;5.652;2023-09-12T14:30:45;26.60;98.20
43089;DHT22;28709;52.030;5.652;2023-09-12T14:33:11;26.50;98.40
43089;DHT22;28709;52.030;5.652;2023-09-12T14:35:37;26.60;98.60
43089;DHT22;28709;52.030;5.652;2023-09-12T14:38:03;26.60;98.70
43089;DHT22;28709;52.030;5.652;2023-09-12T14:40:30;26.70;98.60
43089;DHT22;28709;52.030;5.652;2023-09-12T14:42:56;26.70;98.50
43089;DHT22;28709;52.030;5.652;2023-09-12T14:45:21;26.60;98.50
43089;DHT22;28709;52.030;5.652;2023-09-12T14:47:49;26.50;98.70
43089;DHT22;28709;52.030;5.652;2023-09-12T14:50:14;26.40;98.80
43089;DHT22;28709;52.030;5.652;2023-09-12T14:52:40;26.30;98.50
43089;DHT22;28709;52.030;5.652;2023-09-12T14:55:07;26.20;98.30
43089;DHT22;28709;52.030;5.652;2023-09-12T14:57:34;26.20;98.30
43089;DHT22;28709;52.030;5.652;2023-09-12T15:00:00;26.10;98.50
43089;DHT22;28709;52.030;5.652;2023-09-12T15:02:26;26.10;98.60
43089;DHT22;28709;52.030;5.652;2023-09-12T15:04:57;26.10;98.60
43089;DHT22;28709;52.030;5.652;2023-09-12T15:07:23;26.00;98.70
43089;DHT22;28709;52.030;5.652;2023-09-12T15:09:50;25.90;98.70
43089;DHT22;28709;52.030;5.652;2023-09-12T15:12:15;25.90;98.60
43089;DHT22;28709;52.030;5.652;2023-09-12T15:14:41;25.80;98.90
43089;DHT22;28709;52.030;5.652;2023-09-12T15:17:07;25.60;99.30
43089;DHT22;28709;52.030;5.652;2023-09-12T15:19:33;25.50;99.80
43089;DHT22;28709;52.030;5.652;2023-09-12T15:21:58;25.30;99.90
43089;DHT22;28709;52.030;5.652;2023-09-12T15:24:24;25.20;99.90
43089;DHT22;28709;52.030;5.652;2023-09-12T15:26:50;25.00;99.90
43089;DHT22;28709;52.030;5.652;2023-09-12T15:29:15;24.90;99.90
43089;DHT22;28709;52.030;5.652;2023-09-12T15:31:41;24.80;99.90
43089;DHT22;28709;52.030;5.652;2023-09-12T15:34:06;24.70;99.90
43089;DHT22;28709;52.030;5.652;2023-09-12T15:36:41;24.70;99.90
43089;DHT22;28709;52.030;5.652;2023-09-12T15:39:08;24.60;99.90
43089;DHT22;28709;52.030;5.652;2023-09-12T15:41:34;24.60;99.90
43089;DHT22;28709;52.030;5.652;2023-09-12T15:43:59;24.60;99.90
43089;DHT22;28709;52.030;5.652;2023-09-12T15:46:26;24.60;99.90
43089;DHT22;28709;52.030;5.652;2023-09-12T15:48:52;24.70;99.90
43089;DHT22;28709;52.030;5.652;2023-09-12T15:51:17;24.70;99.90